createdAt,value
2019-02-27T00:00:09.121Z,102123.53
2019-02-27T00:01:42.068Z,102121.52
2019-02-27T00:03:15.949Z,102120.17
2019-02-27T00:04:50.117Z,102117.47
2019-02-27T00:06:24.272Z,102118.13
2019-02-27T00:07:58.467Z,102118.31
2019-02-27T00:09:35.354Z,102121.19
2019-02-27T00:11:09.980Z,102112.72
2019-02-27T00:12:43.850Z,102111.55
2019-02-27T00:14:17.770Z,102111.72
2019-02-27T00:15:51.982Z,102109.53
2019-02-27T00:17:26.818Z,102108.69
2019-02-27T00:19:00.815Z,102109.86
2019-02-27T00:20:36.671Z,102106.83
2019-02-27T00:22:09.028Z,102093.50
2019-02-27T00:23:43.237Z,102097.89
2019-02-27T00:25:17.529Z,102096.69
2019-02-27T00:26:51.245Z,102098.55
2019-02-27T00:28:25.436Z,102087.59
2019-02-27T00:30:04.656Z,102093.66
2019-02-27T00:31:35.408Z,102087.75
2019-02-27T00:33:09.514Z,102089.25
2019-02-27T00:34:43.425Z,102086.38
2019-02-27T00:36:18.049Z,102088.23
2019-02-27T00:37:52.636Z,102088.42
2019-02-27T00:39:26.356Z,102089.09
2019-02-27T00:41:01.278Z,102086.58
2019-02-27T00:42:36.287Z,102080.66
2019-02-27T00:44:10.223Z,102086.03
2019-02-27T00:45:43.947Z,102072.53
2019-02-27T00:47:20.187Z,102073.88
2019-02-27T00:48:52.166Z,102067.46
2019-02-27T00:50:26.421Z,102067.64
2019-02-27T00:52:00.421Z,102060.89
2019-02-27T00:53:34.548Z,102061.41
2019-02-27T00:55:08.755Z,102051.77
2019-02-27T00:57:45.517Z,102056.84
2019-02-27T00:59:20.460Z,102046.16
2019-02-27T01:00:54.246Z,102037.39
2019-02-27T01:02:28.180Z,102040.78
2019-02-27T01:04:03.296Z,102040.75
2019-02-27T01:05:40.969Z,102033.85
2019-02-27T01:07:11.202Z,102032.31
2019-02-27T01:08:45.409Z,102029.65
2019-02-27T01:10:20.232Z,102023.92
2019-02-27T01:11:54.236Z,102025.78
2019-02-27T01:13:28.900Z,102025.23
2019-02-27T01:15:02.479Z,102018.48
2019-02-27T01:16:36.454Z,102017.13
2019-02-27T01:18:11.280Z,102013.11
2019-02-27T01:19:45.682Z,102014.98
2019-02-27T01:21:20.108Z,102013.44
2019-02-27T01:22:54.047Z,102011.44
2019-02-27T01:24:28.162Z,102007.02
2019-02-27T01:26:02.315Z,102009.91
2019-02-27T01:27:37.890Z,101998.30
2019-02-27T01:29:09.394Z,101994.91
2019-02-27T01:30:43.526Z,101994.72
2019-02-27T01:32:17.614Z,101989.14
2019-02-27T01:33:51.641Z,101984.76
2019-02-27T01:35:26.661Z,101993.04
2019-02-27T01:37:00.774Z,101987.67
2019-02-27T01:41:11.636Z,101989.02
2019-02-27T01:42:45.869Z,101989.86
2019-02-27T01:44:20.386Z,101987.49
2019-02-27T01:45:55.041Z,101991.88
2019-02-27T01:47:28.802Z,101985.66
2019-02-27T01:49:03.315Z,101984.16
2019-02-27T01:50:48.629Z,101986.86
2019-02-27T01:52:23.000Z,101975.88
2019-02-27T01:53:56.990Z,101972.37
2019-02-27T01:55:30.994Z,101974.74
2019-02-27T01:57:05.034Z,101965.66
2019-02-27T01:58:43.433Z,101967.00
2019-02-27T02:00:13.336Z,101959.95
2019-02-27T02:01:47.646Z,101959.27
2019-02-27T02:03:21.725Z,101949.16
2019-02-27T02:04:55.863Z,101953.53
2019-02-27T02:06:31.941Z,101946.27
2019-02-27T02:08:04.728Z,101947.44
2019-02-27T02:09:48.090Z,101938.51
2019-02-27T02:11:22.012Z,101935.66
2019-02-27T02:12:57.454Z,101942.91
2019-02-27T02:14:45.179Z,101940.03
2019-02-27T02:17:05.070Z,101932.98
2019-02-27T02:19:21.969Z,101926.25
2019-02-27T02:21:18.924Z,101918.14
2019-02-27T02:23:13.994Z,101915.80
2019-02-27T02:25:35.476Z,101918.34
2019-02-27T02:27:21.623Z,101917.98
2019-02-27T02:29:22.247Z,101907.55
2019-02-27T02:32:17.515Z,101897.78
2019-02-27T02:34:05.196Z,101892.57
2019-02-27T02:36:00.171Z,101883.12
2019-02-27T02:37:45.757Z,101881.30
2019-02-27T02:39:54.167Z,101874.88
2019-02-27T02:42:06.452Z,101864.78
2019-02-27T02:43:55.864Z,101866.63
2019-02-27T02:45:44.077Z,101863.94
2019-02-27T02:47:28.124Z,101858.88
2019-02-27T02:49:20.450Z,101857.37
2019-02-27T02:51:08.694Z,101846.77
2019-02-27T02:53:06.046Z,101846.77
2019-02-27T02:54:52.645Z,101843.41
2019-02-27T02:56:35.055Z,101843.25
2019-02-27T02:58:24.031Z,101839.72
2019-02-27T03:00:39.093Z,101848.31
2019-02-27T03:02:23.540Z,101839.05
2019-02-27T03:04:12.453Z,101837.70
2019-02-27T03:06:52.616Z,101829.61
2019-02-27T03:08:36.077Z,101832.66
2019-02-27T03:10:43.056Z,101831.31
2019-02-27T03:14:53.332Z,101828.81
2019-02-27T03:17:35.096Z,101807.23
2019-02-27T03:19:41.201Z,101806.75
2019-02-27T03:21:27.509Z,101806.06
2019-02-27T03:23:16.691Z,101809.44
2019-02-27T03:27:12.753Z,101805.24
2019-02-27T03:29:57.718Z,101797.98
2019-02-27T03:31:57.703Z,101792.95
2019-02-27T03:34:35.634Z,101792.63
2019-02-27T03:36:58.698Z,101783.19
2019-02-27T03:39:57.787Z,101782.17
2019-02-27T03:41:46.203Z,101774.77
2019-02-27T03:43:33.958Z,101774.08
2019-02-27T03:45:19.316Z,101772.41
2019-02-27T03:47:03.465Z,101770.41
2019-02-27T03:48:48.929Z,101770.57
2019-02-27T03:52:37.814Z,101756.26
2019-02-27T03:54:21.295Z,101735.92
2019-02-27T03:58:10.118Z,101746.70
2019-02-27T04:00:03.359Z,101742.66
2019-02-27T04:02:05.891Z,101733.41
2019-02-27T04:03:54.197Z,101736.25
2019-02-27T04:06:02.590Z,101736.76
2019-02-27T04:09:45.090Z,101727.00
2019-02-27T04:11:20.138Z,101720.77
2019-02-27T04:12:54.188Z,101719.25
2019-02-27T04:14:42.379Z,101717.23
2019-02-27T04:16:16.465Z,101717.23
2019-02-27T04:17:53.113Z,101707.30
2019-02-27T04:19:27.364Z,101710.85
2019-02-27T04:21:02.593Z,101708.52
2019-02-27T04:22:37.599Z,101708.00
2019-02-27T04:24:10.702Z,101708.00
2019-02-27T04:25:44.998Z,101712.55
2019-02-27T04:27:21.234Z,101710.52
2019-02-27T04:28:54.134Z,101705.48
2019-02-27T04:30:29.607Z,101697.73
2019-02-27T04:32:03.516Z,101696.72
2019-02-27T04:33:37.708Z,101693.70
2019-02-27T04:35:11.509Z,101702.28
2019-02-27T04:36:47.160Z,101700.61
2019-02-27T04:38:19.543Z,101697.05
2019-02-27T04:39:53.520Z,101693.01
2019-02-27T04:41:27.830Z,101695.55
2019-02-27T04:43:02.732Z,101696.06
2019-02-27T04:44:38.887Z,101697.55
2019-02-27T04:46:11.786Z,101697.41
2019-02-27T04:47:45.263Z,101692.55
2019-02-27T04:49:19.387Z,101699.45
2019-02-27T04:50:53.494Z,101696.42
2019-02-27T04:52:28.322Z,101700.14
2019-02-27T04:54:06.357Z,101694.58
2019-02-27T04:55:37.037Z,101692.39
2019-02-27T04:57:12.075Z,101686.66
2019-02-27T04:58:46.126Z,101689.05
2019-02-27T05:00:20.680Z,101688.35
2019-02-27T05:01:54.821Z,101686.02
2019-02-27T05:03:29.627Z,101686.36
2019-02-27T05:05:06.238Z,101683.83
2019-02-27T05:06:37.945Z,101671.88
2019-02-27T05:08:12.011Z,101686.52
2019-02-27T05:09:46.455Z,101680.96
2019-02-27T05:11:20.256Z,101669.88
2019-02-27T05:12:54.475Z,101680.30
2019-02-27T05:14:28.492Z,101675.92
2019-02-27T05:16:02.896Z,101675.92
2019-02-27T05:17:38.228Z,101673.23
2019-02-27T05:19:11.930Z,101676.44
2019-02-27T05:20:46.143Z,101678.29
2019-02-27T05:22:20.456Z,101679.30
2019-02-27T05:23:54.355Z,101674.24
2019-02-27T05:25:28.355Z,101672.56
2019-02-27T05:27:02.451Z,101665.17
2019-02-27T05:28:36.763Z,101664.48
2019-02-27T05:30:12.301Z,101661.63
2019-02-27T05:31:44.786Z,101660.28
2019-02-27T05:33:18.993Z,101660.13
2019-02-27T05:34:53.308Z,101658.95
2019-02-27T05:36:29.032Z,101656.08
2019-02-27T05:38:02.479Z,101661.81
2019-02-27T05:39:36.430Z,101662.83
2019-02-27T05:41:10.863Z,101655.25
2019-02-27T05:42:44.882Z,101663.01
2019-02-27T05:44:21.425Z,101662.67
2019-02-27T05:45:53.398Z,101659.48
2019-02-27T05:47:27.596Z,101656.78
2019-02-27T05:49:02.351Z,101652.05
2019-02-27T05:50:36.389Z,101644.49
2019-02-27T05:52:11.856Z,101648.02
2019-02-27T05:53:44.741Z,101656.77
2019-02-27T05:55:18.548Z,101651.06
2019-02-27T05:56:52.534Z,101656.78
2019-02-27T05:58:26.654Z,101647.69
2019-02-27T06:00:02.773Z,101652.42
2019-02-27T06:01:37.737Z,101654.41
2019-02-27T06:03:08.974Z,101657.12
2019-02-27T06:04:43.184Z,101658.45
2019-02-27T06:06:17.393Z,101656.44
2019-02-27T06:07:51.557Z,101657.45
2019-02-27T06:09:25.513Z,101656.77
2019-02-27T06:10:59.515Z,101659.79
2019-02-27T06:12:33.822Z,101656.59
2019-02-27T06:14:08.339Z,101652.41
2019-02-27T06:15:42.775Z,101651.41
2019-02-27T06:17:16.672Z,101650.05
2019-02-27T06:18:50.876Z,101657.29
2019-02-27T06:20:24.785Z,101658.46
2019-02-27T06:21:59.695Z,101660.80
2019-02-27T06:23:35.414Z,101660.30
2019-02-27T06:25:08.217Z,101667.69
2019-02-27T06:26:42.343Z,101660.81
2019-02-27T06:28:18.499Z,101657.10
2019-02-27T06:29:50.743Z,101661.14
2019-02-27T06:31:24.956Z,101659.79
2019-02-27T06:32:59.364Z,101657.80
2019-02-27T06:34:33.371Z,101659.62
2019-02-27T06:36:07.922Z,101650.70
2019-02-27T06:37:41.466Z,101652.75
2019-02-27T06:39:15.592Z,101649.70
2019-02-27T06:40:49.473Z,101641.66
2019-02-27T06:42:23.668Z,101648.01
2019-02-27T06:43:58.917Z,101649.85
2019-02-27T06:45:33.897Z,101652.21
2019-02-27T06:47:08.082Z,101650.37
2019-02-27T06:48:43.472Z,101640.92
2019-02-27T06:50:15.989Z,101643.80
2019-02-27T06:51:49.879Z,101633.71
2019-02-27T06:53:23.885Z,101633.87
2019-02-27T06:54:58.202Z,101629.48
2019-02-27T06:56:32.125Z,101625.77
2019-02-27T06:58:05.991Z,101626.13
2019-02-27T06:59:40.010Z,101626.13
2019-02-27T07:01:45.059Z,101623.11
2019-02-27T07:03:20.554Z,101625.45
2019-02-27T07:04:54.783Z,101620.56
2019-02-27T07:06:28.595Z,101621.73
2019-02-27T07:08:05.094Z,101624.09
2019-02-27T07:09:38.552Z,101614.17
2019-02-27T07:11:14.272Z,101624.09
2019-02-27T07:12:48.106Z,101615.34
2019-02-27T07:14:21.990Z,101619.70
2019-02-27T07:15:56.134Z,101628.11
2019-02-27T07:17:31.721Z,101621.38
2019-02-27T07:19:04.067Z,101614.30
2019-02-27T07:20:39.242Z,101613.64
2019-02-27T07:22:14.066Z,101610.10
2019-02-27T07:23:48.104Z,101611.62
2019-02-27T07:25:23.415Z,101610.61
2019-02-27T07:26:57.515Z,101603.55
2019-02-27T07:28:31.523Z,101606.40
2019-02-27T07:30:07.460Z,101597.31
2019-02-27T07:31:40.974Z,101597.27
2019-02-27T07:33:15.873Z,101595.24
2019-02-27T07:34:50.408Z,101601.80
2019-02-27T07:36:23.895Z,101593.20
2019-02-27T07:37:57.785Z,101596.41
2019-02-27T07:39:34.144Z,101597.39
2019-02-27T07:41:08.675Z,101590.33
2019-02-27T07:42:43.303Z,101591.38
2019-02-27T07:44:17.668Z,101586.00
2019-02-27T07:45:51.613Z,101583.45
2019-02-27T07:47:26.436Z,101586.98
2019-02-27T07:49:01.555Z,101583.60
2019-02-27T07:50:35.879Z,101587.64
2019-02-27T07:52:12.972Z,101586.30
2019-02-27T07:53:47.600Z,101578.55
2019-02-27T07:57:23.870Z,101577.70
2019-02-27T07:58:58.374Z,101571.70
2019-02-27T08:00:35.334Z,101569.66
2019-02-27T08:02:09.696Z,101572.86
2019-02-27T08:03:45.546Z,101575.02
2019-02-27T08:05:18.484Z,101569.12
2019-02-27T08:09:00.581Z,101560.16
2019-02-27T08:10:36.996Z,101558.30
2019-02-27T08:12:10.585Z,101562.34
2019-02-27T08:13:45.571Z,101557.61
2019-02-27T08:15:19.358Z,101556.77
2019-02-27T08:16:57.105Z,101558.26
2019-02-27T08:18:30.143Z,101558.55
2019-02-27T08:20:00.670Z,101554.45
2019-02-27T08:21:34.672Z,101556.83
2019-02-27T08:23:10.726Z,101556.50
2019-02-27T08:24:45.551Z,101561.56
2019-02-27T08:26:19.863Z,101562.53
2019-02-27T08:27:54.402Z,101561.83
2019-02-27T08:29:28.905Z,101556.77
2019-02-27T08:31:03.532Z,101547.28
2019-02-27T08:32:37.187Z,101548.76
2019-02-27T08:34:11.215Z,101546.86
2019-02-27T08:35:45.307Z,101545.12
2019-02-27T08:37:20.307Z,101542.89
2019-02-27T08:38:53.644Z,101549.05
2019-02-27T08:40:27.623Z,101546.28
2019-02-27T08:42:03.597Z,101552.83
2019-02-27T08:43:35.981Z,101548.82
2019-02-27T08:45:19.001Z,101539.30
2019-02-27T08:46:44.483Z,101539.64
2019-02-27T08:48:18.076Z,101538.30
2019-02-27T08:49:51.470Z,101531.53
2019-02-27T08:51:25.362Z,101529.61
2019-02-27T08:53:05.319Z,101526.05
2019-02-27T08:54:39.216Z,101527.20
2019-02-27T08:56:13.306Z,101538.33
2019-02-27T08:57:49.635Z,101533.73
2019-02-27T08:59:21.646Z,101530.62
2019-02-27T09:00:56.160Z,101523.76
2019-02-27T09:02:29.979Z,101523.89
2019-02-27T09:04:05.967Z,101519.13
2019-02-27T09:05:37.843Z,101518.48
2019-02-27T09:07:11.769Z,101519.33
2019-02-27T09:08:45.749Z,101514.66
2019-02-27T09:10:19.061Z,101514.86
2019-02-27T09:11:52.964Z,101518.80
2019-02-27T09:13:27.576Z,101498.68
2019-02-27T09:15:01.564Z,101502.53
2019-02-27T09:16:35.795Z,101500.41
2019-02-27T09:18:09.804Z,101503.75
2019-02-27T09:19:45.552Z,101490.30
2019-02-27T09:21:17.993Z,101494.16
2019-02-27T09:22:52.221Z,101495.51
2019-02-27T09:24:26.408Z,101482.72
2019-02-27T09:26:02.489Z,101486.26
2019-02-27T09:27:35.316Z,101472.15
2019-02-27T09:29:09.057Z,101469.45
2019-02-27T09:30:43.275Z,101471.44
2019-02-27T09:32:18.082Z,101473.11
2019-02-27T09:33:53.319Z,101461.25
2019-02-27T09:35:26.102Z,101457.71
2019-02-27T09:36:59.865Z,101458.52
2019-02-27T09:38:33.905Z,101461.97
2019-02-27T09:40:07.922Z,101464.88
2019-02-27T09:41:46.092Z,101461.53
2019-02-27T09:43:16.062Z,101465.27
2019-02-27T09:44:50.022Z,101458.00
2019-02-27T09:46:24.100Z,101470.08
2019-02-27T09:47:59.999Z,101469.12
2019-02-27T09:49:33.154Z,101474.34
2019-02-27T09:51:08.424Z,101464.67
2019-02-27T09:52:42.531Z,101460.36
2019-02-27T09:54:17.144Z,101462.47
2019-02-27T09:55:53.306Z,101469.50
2019-02-27T09:57:27.067Z,101458.66
2019-02-27T09:58:59.311Z,101452.78
2019-02-27T10:00:45.397Z,101442.59
2019-02-27T10:02:21.234Z,101446.70
2019-02-27T10:03:55.256Z,101441.77
2019-02-27T10:05:30.278Z,101432.80
2019-02-27T10:07:04.410Z,101419.29
2019-02-27T10:08:38.513Z,101415.00
2019-02-27T10:10:12.627Z,101422.28
2019-02-27T10:11:46.848Z,101443.47
2019-02-27T10:13:21.518Z,101424.52
2019-02-27T10:14:55.574Z,101409.94
2019-02-27T10:16:29.526Z,101426.39
2019-02-27T10:18:03.368Z,101423.16
2019-02-27T10:19:38.408Z,101419.09
2019-02-27T10:21:12.735Z,101418.44
2019-02-27T10:22:46.521Z,101412.50
2019-02-27T10:24:19.381Z,101411.15
2019-02-27T10:25:53.252Z,101401.88
2019-02-27T10:27:28.850Z,101399.48
2019-02-27T10:29:01.617Z,101393.06
2019-02-27T10:30:36.542Z,101394.62
2019-02-27T10:32:10.248Z,101388.17
2019-02-27T10:33:44.245Z,101389.77
2019-02-27T10:35:18.148Z,101387.99
2019-02-27T10:36:52.111Z,101387.27
2019-02-27T10:38:26.772Z,101388.62
2019-02-27T10:40:00.247Z,101382.89
2019-02-27T10:41:33.958Z,101378.97
2019-02-27T10:43:07.684Z,101379.06
2019-02-27T10:44:41.660Z,101373.75
2019-02-27T10:46:16.602Z,101372.19
2019-02-27T10:47:50.876Z,101362.63
2019-02-27T10:49:25.611Z,101367.11
2019-02-27T10:51:00.535Z,101355.88
2019-02-27T10:52:34.655Z,101353.69
2019-02-27T10:54:08.861Z,101347.90
2019-02-27T10:55:43.349Z,101346.73
2019-02-27T10:57:17.321Z,101349.07
2019-02-27T10:58:52.352Z,101340.86
2019-02-27T11:00:30.243Z,101338.98
2019-02-27T11:02:04.216Z,101332.19
2019-02-27T11:03:37.388Z,101322.61
2019-02-27T11:05:11.506Z,101321.05
2019-02-27T11:06:45.727Z,101325.30
2019-02-27T11:08:19.882Z,101319.78
2019-02-27T11:09:53.073Z,101304.42
2019-02-27T11:11:28.041Z,101303.30
2019-02-27T11:13:05.618Z,101304.09
2019-02-27T11:14:36.457Z,101297.51
2019-02-27T11:16:10.245Z,101291.02
2019-02-27T11:17:44.251Z,101293.18
2019-02-27T11:19:17.267Z,101297.21
2019-02-27T11:20:52.074Z,101286.31
2019-02-27T11:22:25.859Z,101289.48
2019-02-27T11:24:00.106Z,101288.44
2019-02-27T11:25:37.353Z,101281.52
2019-02-27T11:27:11.296Z,101275.90
2019-02-27T11:28:47.645Z,101280.02
2019-02-27T11:30:19.440Z,101266.83
2019-02-27T11:31:53.380Z,101275.65
2019-02-27T11:33:32.725Z,101268.09
2019-02-27T11:35:01.710Z,101268.15
2019-02-27T11:36:35.023Z,101257.50
2019-02-27T11:38:08.255Z,101244.80
2019-02-27T11:39:42.407Z,101240.41
2019-02-27T11:41:17.085Z,101246.94
2019-02-27T11:42:50.742Z,101242.77
2019-02-27T11:44:24.799Z,101246.44
2019-02-27T11:45:59.320Z,101254.26
2019-02-27T11:47:33.426Z,101256.36
2019-02-27T11:49:06.426Z,101242.39
2019-02-27T11:50:40.311Z,101240.45
2019-02-27T11:52:14.170Z,101231.25
2019-02-27T11:53:47.968Z,101227.19
2019-02-27T11:55:24.444Z,101221.37
2019-02-27T11:56:57.864Z,101210.97
2019-02-27T11:58:30.845Z,101209.31
2019-02-27T12:00:04.950Z,101199.70
2019-02-27T12:01:38.788Z,101209.14
2019-02-27T12:03:12.968Z,101197.26
2019-02-27T12:04:46.966Z,101194.16
2019-02-27T12:06:20.985Z,101191.78
2019-02-27T12:07:54.750Z,101197.67
2019-02-27T12:09:29.809Z,101198.99
2019-02-27T12:11:03.844Z,101201.27
2019-02-27T12:12:37.994Z,101187.39
2019-02-27T12:14:12.100Z,101189.67
2019-02-27T12:15:46.235Z,101193.32
2019-02-27T12:17:20.174Z,101183.26
2019-02-27T12:20:53.215Z,101169.20
2019-02-27T12:22:23.820Z,101167.13
2019-02-27T12:23:57.540Z,101155.91
2019-02-27T12:25:32.410Z,101151.61
2019-02-27T12:27:07.241Z,101147.66
2019-02-27T12:28:40.059Z,101148.62
2019-02-27T12:30:14.183Z,101147.09
2019-02-27T12:31:49.109Z,101150.39
2019-02-27T12:33:24.118Z,101158.47
2019-02-27T12:34:57.097Z,101155.08
2019-02-27T12:36:31.120Z,101157.81
2019-02-27T12:38:08.190Z,101167.00
2019-02-27T12:39:39.344Z,101156.09
2019-02-27T12:41:13.453Z,101159.95
2019-02-27T12:42:47.425Z,101146.15
2019-02-27T12:44:21.557Z,101138.59
2019-02-27T12:45:54.327Z,101151.45
2019-02-27T12:47:27.978Z,101129.50
2019-02-27T12:49:02.121Z,101128.87
2019-02-27T12:50:37.045Z,101108.45
2019-02-27T12:52:12.109Z,101109.27
2019-02-27T12:53:46.296Z,101121.84
2019-02-27T12:55:21.433Z,101105.73
2019-02-27T12:56:55.340Z,101114.14
2019-02-27T12:58:29.442Z,101112.68
2019-02-27T13:00:05.786Z,101114.31
2019-02-27T13:01:38.581Z,101107.80
2019-02-27T13:03:12.497Z,101099.89
2019-02-27T13:04:46.512Z,101102.39
2019-02-27T13:06:21.409Z,101096.35
2019-02-27T13:07:55.703Z,101087.39
2019-02-27T13:09:30.859Z,101081.88
2019-02-27T13:11:05.252Z,101071.47
2019-02-27T13:12:38.876Z,101068.78
2019-02-27T13:14:12.615Z,101065.47
2019-02-27T13:15:47.582Z,101062.61
2019-02-27T13:17:22.241Z,101073.66
2019-02-27T13:18:55.887Z,101062.05
2019-02-27T13:20:33.599Z,101062.78
2019-02-27T13:22:08.243Z,101063.33
2019-02-27T13:23:43.960Z,101063.27
2019-02-27T13:25:18.253Z,101061.31
2019-02-27T13:26:52.494Z,101053.22
2019-02-27T13:28:26.783Z,101052.16
2019-02-27T13:30:08.387Z,101036.08
2019-02-27T13:31:33.778Z,101051.63
2019-02-27T13:33:07.682Z,101029.42
2019-02-27T13:34:41.362Z,101034.27
2019-02-27T13:36:15.384Z,101037.62
2019-02-27T13:37:49.184Z,101009.63
2019-02-27T13:39:25.589Z,101017.36
2019-02-27T13:40:58.011Z,101010.49
2019-02-27T13:42:32.816Z,101000.75
2019-02-27T13:44:07.971Z,101006.78
2019-02-27T13:45:41.869Z,100986.13
2019-02-27T13:47:50.167Z,100986.67
2019-02-27T13:49:25.837Z,100974.14
2019-02-27T13:52:49.654Z,100973.41
2019-02-27T13:54:21.986Z,100981.95
2019-02-27T13:55:54.738Z,100981.72
2019-02-27T13:57:28.651Z,100970.37
2019-02-27T13:59:03.110Z,100966.76
2019-02-27T14:00:42.058Z,100965.38
2019-02-27T14:02:16.402Z,100956.55
2019-02-27T14:03:50.483Z,100954.73
2019-02-27T14:05:24.503Z,100961.47
2019-02-27T14:06:59.333Z,100942.75
2019-02-27T14:08:35.201Z,100923.56
2019-02-27T14:10:10.741Z,100910.98
2019-02-27T14:11:49.005Z,100905.61
2019-02-27T14:13:25.018Z,100915.80
2019-02-27T14:14:58.642Z,100916.17
2019-02-27T14:16:34.723Z,100908.94
2019-02-27T14:18:06.745Z,100914.59
2019-02-27T14:19:39.664Z,100920.78
2019-02-27T14:21:14.852Z,100925.69
2019-02-27T14:22:46.954Z,100944.27
2019-02-27T14:24:21.361Z,100934.23
2019-02-27T14:25:54.189Z,100933.70
2019-02-27T14:27:29.353Z,100916.63
2019-02-27T14:29:04.205Z,100913.22
2019-02-27T14:30:41.703Z,100902.45
2019-02-27T14:32:15.902Z,100897.62
2019-02-27T14:33:51.173Z,100888.19
2019-02-27T14:35:24.011Z,100889.17
2019-02-27T14:36:58.015Z,100880.09
2019-02-27T14:38:32.134Z,100874.16
2019-02-27T14:40:06.212Z,100877.07
2019-02-27T14:41:40.234Z,100865.67
2019-02-27T14:43:13.199Z,100860.03
2019-02-27T14:44:46.942Z,100872.26
2019-02-27T14:46:22.231Z,100871.35
2019-02-27T14:47:56.585Z,100864.56
2019-02-27T14:49:30.277Z,100865.64
2019-02-27T14:51:07.321Z,100869.11
2019-02-27T14:52:39.089Z,100868.13
2019-02-27T14:54:12.169Z,100861.41
2019-02-27T14:55:46.386Z,100855.98
2019-02-27T14:57:20.652Z,100856.88
2019-02-27T14:58:56.595Z,100863.53
2019-02-27T15:00:31.550Z,100873.50
2019-02-27T15:02:05.777Z,100879.36
2019-02-27T15:03:39.777Z,100877.70
2019-02-27T15:05:14.104Z,100884.95
2019-02-27T15:06:50.358Z,100879.29
2019-02-27T15:08:25.171Z,100873.79
2019-02-27T15:09:57.960Z,100869.48
2019-02-27T15:11:32.371Z,100871.08
2019-02-27T15:13:06.415Z,100868.80
2019-02-27T15:14:40.153Z,100877.99
2019-02-27T15:16:15.422Z,100865.12
2019-02-27T15:17:48.100Z,100866.54
2019-02-27T15:19:21.105Z,100863.00
2019-02-27T15:20:56.302Z,100860.34
2019-02-27T15:22:30.302Z,100858.09
2019-02-27T15:24:06.355Z,100852.72
2019-02-27T15:25:43.086Z,100859.73
2019-02-27T15:27:15.092Z,100853.25
2019-02-27T15:28:49.143Z,100858.52
2019-02-27T15:30:23.832Z,100856.09
2019-02-27T15:31:57.913Z,100855.27
2019-02-27T15:33:31.889Z,100853.38
2019-02-27T15:35:07.047Z,100853.14
2019-02-27T15:36:41.261Z,100854.36
2019-02-27T15:38:15.576Z,100854.73
2019-02-27T15:39:52.003Z,100850.97
2019-02-27T15:41:24.747Z,100841.80
2019-02-27T15:42:58.518Z,100839.39
2019-02-27T15:44:34.567Z,100855.66
2019-02-27T15:46:06.717Z,100846.59
2019-02-27T15:47:41.503Z,100838.16
2019-02-27T15:49:15.908Z,100836.03
2019-02-27T15:50:49.659Z,100835.12
2019-02-27T15:52:23.864Z,100836.61
2019-02-27T15:53:57.952Z,100830.59
2019-02-27T15:55:35.097Z,100838.73
2019-02-27T15:57:07.822Z,100821.09
2019-02-27T15:58:41.931Z,100821.25
2019-02-27T16:00:18.475Z,100818.66
2019-02-27T16:01:50.346Z,100822.44
2019-02-27T16:03:24.470Z,100803.16
2019-02-27T16:04:58.263Z,100807.67
2019-02-27T16:06:32.290Z,100806.14
2019-02-27T16:08:06.892Z,100802.66
2019-02-27T16:09:41.601Z,100798.74
2019-02-27T16:11:16.545Z,100790.20
2019-02-27T16:12:49.818Z,100787.55
2019-02-27T16:14:24.537Z,100777.34
2019-02-27T16:15:58.643Z,100779.11
2019-02-27T16:17:32.443Z,100778.36
2019-02-27T16:19:07.987Z,100777.36
2019-02-27T16:20:41.687Z,100768.77
2019-02-27T16:22:16.600Z,100769.08
2019-02-27T16:23:50.614Z,100762.98
2019-02-27T16:25:25.721Z,100761.29
2019-02-27T16:27:01.331Z,100750.34
2019-02-27T16:28:34.095Z,100755.69
2019-02-27T16:30:09.706Z,100750.55
2019-02-27T16:31:43.856Z,100745.42
2019-02-27T16:33:23.523Z,100743.28
2019-02-27T16:34:52.513Z,100742.09
2019-02-27T16:36:35.767Z,100736.97
2019-02-27T16:38:01.010Z,100737.76
2019-02-27T16:39:41.018Z,100732.12
2019-02-27T16:41:09.897Z,100734.75
2019-02-27T16:42:45.131Z,100736.11
2019-02-27T16:44:22.049Z,100739.03
2019-02-27T16:45:53.751Z,100741.11
2019-02-27T16:47:29.595Z,100742.09
2019-02-27T16:49:04.110Z,100737.84
2019-02-27T16:50:40.242Z,100745.36
2019-02-27T16:52:14.273Z,100746.22
2019-02-27T16:53:47.182Z,100739.82
2019-02-27T16:55:22.366Z,100741.28
2019-02-27T16:56:57.957Z,100727.81
2019-02-27T16:58:32.957Z,100723.64
2019-02-27T17:00:04.586Z,100719.42
2019-02-27T17:01:38.882Z,100715.25
2019-02-27T17:03:14.047Z,100715.09
2019-02-27T17:04:48.662Z,100717.74
2019-02-27T17:06:22.847Z,100708.16
2019-02-27T17:08:00.217Z,100711.83
2019-02-27T17:09:33.546Z,100704.66
2019-02-27T17:11:07.221Z,100691.87
2019-02-27T17:12:41.561Z,100686.91
2019-02-27T17:14:15.070Z,100691.37
2019-02-27T17:15:49.240Z,100694.82
2019-02-27T17:17:23.244Z,100690.23
2019-02-27T17:18:59.142Z,100688.80
2019-02-27T17:20:34.230Z,100679.64
2019-02-27T17:22:08.167Z,100674.31
2019-02-27T17:23:45.410Z,100667.47
2019-02-27T17:25:16.451Z,100671.61
2019-02-27T17:26:51.536Z,100663.61
2019-02-27T17:28:25.393Z,100655.80
2019-02-27T17:30:00.069Z,100660.59
2019-02-27T17:31:33.507Z,100651.13
2019-02-27T17:33:08.414Z,100649.97
2019-02-27T17:34:42.434Z,100645.83
2019-02-27T17:36:18.191Z,100643.84
2019-02-27T17:37:52.477Z,100641.97
2019-02-27T17:39:29.869Z,100638.44
2019-02-27T17:41:00.895Z,100650.91
2019-02-27T17:42:34.813Z,100651.30
2019-02-27T17:44:09.125Z,100658.36
2019-02-27T17:46:14.362Z,100653.89
2019-02-27T17:47:49.018Z,100648.78
2019-02-27T17:49:25.387Z,100638.07
2019-02-27T17:50:57.319Z,100637.55
2019-02-27T17:52:32.311Z,100647.53
2019-02-27T17:54:06.130Z,100638.59
2019-02-27T17:55:41.748Z,100632.80
2019-02-27T17:57:13.910Z,100628.66
2019-02-27T17:58:48.037Z,100626.45
2019-02-27T18:00:23.987Z,100614.80
2019-02-27T18:01:58.754Z,100616.08
2019-02-27T18:03:32.421Z,100607.66
2019-02-27T18:05:09.312Z,100607.66
2019-02-27T18:06:44.328Z,100617.43
2019-02-27T18:08:17.297Z,100618.48
2019-02-27T18:09:51.737Z,100616.08
2019-02-27T18:11:26.701Z,100611.42
2019-02-27T18:13:01.425Z,100610.81
2019-02-27T18:14:35.767Z,100613.52
2019-02-27T18:16:09.900Z,100604.16
2019-02-27T18:17:42.924Z,100614.38
2019-02-27T18:19:17.259Z,100617.16
2019-02-27T18:20:50.860Z,100608.74
2019-02-27T18:22:24.746Z,100596.87
2019-02-27T18:23:58.892Z,100587.03
2019-02-27T18:25:32.776Z,100587.41
2019-02-27T18:27:07.568Z,100590.34
2019-02-27T18:28:41.706Z,100589.52
2019-02-27T18:30:18.954Z,100591.25
2019-02-27T18:31:50.611Z,100585.84
2019-02-27T18:33:24.743Z,100576.30
2019-02-27T18:34:58.953Z,100578.66
2019-02-27T18:36:42.411Z,100570.62
2019-02-27T18:38:07.574Z,100572.42
2019-02-27T18:39:41.566Z,100569.42
2019-02-27T18:41:15.693Z,100565.66
2019-02-27T18:42:55.355Z,100557.02